sensor_id;sensor_type;location;lat;lon;timestamp;temperature;humidity
3876;DHT22;1953;51.222;6.624;2023-07-02T00:00:59;19.20;1.00
3876;DHT22;1953;51.222;6.624;2023-07-02T00:05:42;19.20;1.00
3876;DHT22;1953;51.222;6.624;2023-07-02T00:14:18;19.50;1.00
3876;DHT22;1953;51.222;6.624;2023-07-02T00:19:00;18.90;1.00
3876;DHT22;1953;51.222;6.624;2023-07-02T00:23:43;18.80;1.00
3876;DHT22;1953;51.222;6.624;2023-07-02T00:28:25;18.90;1.00
3876;DHT22;1953;51.222;6.624;2023-07-02T00:33:09;18.90;1.00
3876;DHT22;1953;51.222;6.624;2023-07-02T00:37:51;18.80;1.00
3876;DHT22;1953;51.222;6.624;2023-07-02T00:42:34;18.80;1.00
3876;DHT22;1953;51.222;6.624;2023-07-02T00:47:16;18.70;1.00
3876;DHT22;1953;51.222;6.624;2023-07-02T00:52:00;18.70;1.00
3876;DHT22;1953;51.222;6.624;2023-07-02T00:56:43;18.60;1.00
3876;DHT22;1953;51.222;6.624;2023-07-02T01:01:27;18.60;1.00
3876;DHT22;1953;51.222;6.624;2023-07-02T01:06:11;18.60;1.00
3876;DHT22;1953;51.222;6.624;2023-07-02T01:10:54;18.50;1.00
3876;DHT22;1953;51.222;6.624;2023-07-02T01:15:37;18.40;1.00
3876;DHT22;1953;51.222;6.624;2023-07-02T01:20:22;18.40;1.00
3876;DHT22;1953;51.222;6.624;2023-07-02T01:25:06;18.30;1.00
3876;DHT22;1953;51.222;6.624;2023-07-02T01:29:51;18.30;1.00
3876;DHT22;1953;51.222;6.624;2023-07-02T01:34:34;18.20;1.00
3876;DHT22;1953;51.222;6.624;2023-07-02T01:39:18;18.10;1.00
3876;DHT22;1953;51.222;6.624;2023-07-02T01:44:00;18.10;1.00
3876;DHT22;1953;51.222;6.624;2023-07-02T01:48:43;18.00;1.00
3876;DHT22;1953;51.222;6.624;2023-07-02T01:53:25;17.90;1.00
3876;DHT22;1953;51.222;6.624;2023-07-02T01:58:09;17.80;1.00
3876;DHT22;1953;51.222;6.624;2023-07-02T02:02:52;17.80;1.00
3876;DHT22;1953;51.222;6.624;2023-07-02T02:07:35;17.70;1.00
3876;DHT22;1953;51.222;6.624;2023-07-02T02:12:17;17.60;1.00
3876;DHT22;1953;51.222;6.624;2023-07-02T02:17:01;17.60;1.00
3876;DHT22;1953;51.222;6.624;2023-07-02T02:21:44;17.50;1.00
3876;DHT22;1953;51.222;6.624;2023-07-02T02:26:26;17.50;1.00
3876;DHT22;1953;51.222;6.624;2023-07-02T02:31:09;17.60;1.00
3876;DHT22;1953;51.222;6.624;2023-07-02T02:35:53;17.60;1.00
3876;DHT22;1953;51.222;6.624;2023-07-02T02:40:36;17.60;1.00
3876;DHT22;1953;51.222;6.624;2023-07-02T02:45:18;17.60;1.00
3876;DHT22;1953;51.222;6.624;2023-07-02T02:50:01;17.60;1.00
3876;DHT22;1953;51.222;6.624;2023-07-02T02:54:45;17.60;1.00
3876;DHT22;1953;51.222;6.624;2023-07-02T02:59:31;17.60;1.00
3876;DHT22;1953;51.222;6.624;2023-07-02T03:04:14;17.60;1.00
3876;DHT22;1953;51.222;6.624;2023-07-02T03:08:56;17.60;1.00
3876;DHT22;1953;51.222;6.624;2023-07-02T03:13:40;17.60;1.00
3876;DHT22;1953;51.222;6.624;2023-07-02T03:18:23;17.60;1.00
3876;DHT22;1953;51.222;6.624;2023-07-02T03:23:05;17.60;1.00
3876;DHT22;1953;51.222;6.624;2023-07-02T03:27:48;17.50;1.00
3876;DHT22;1953;51.222;6.624;2023-07-02T03:32:31;17.50;1.00
3876;DHT22;1953;51.222;6.624;2023-07-02T03:37:14;17.60;1.00
3876;DHT22;1953;51.222;6.624;2023-07-02T03:41:56;17.50;1.00
3876;DHT22;1953;51.222;6.624;2023-07-02T03:46:39;17.50;1.00
3876;DHT22;1953;51.222;6.624;2023-07-02T03:51:23;17.50;1.00
3876;DHT22;1953;51.222;6.624;2023-07-02T03:56:05;17.50;1.00
3876;DHT22;1953;51.222;6.624;2023-07-02T04:00:48;17.50;1.00
3876;DHT22;1953;51.222;6.624;2023-07-02T04:05:31;17.50;1.00
3876;DHT22;1953;51.222;6.624;2023-07-02T04:10:15;17.50;1.00
3876;DHT22;1953;51.222;6.624;2023-07-02T04:14:57;17.50;1.00
3876;DHT22;1953;51.222;6.624;2023-07-02T04:19:40;17.50;1.00
3876;DHT22;1953;51.222;6.624;2023-07-02T04:24:22;17.50;1.00
3876;DHT22;1953;51.222;6.624;2023-07-02T04:29:08;17.60;1.00
3876;DHT22;1953;51.222;6.624;2023-07-02T04:33:51;17.60;1.00
3876;DHT22;1953;51.222;6.624;2023-07-02T04:38:33;17.70;1.00
3876;DHT22;1953;51.222;6.624;2023-07-02T04:43:16;17.70;1.00
3876;DHT22;1953;51.222;6.624;2023-07-02T04:48:00;17.70;1.00
3876;DHT22;1953;51.222;6.624;2023-07-02T04:52:43;17.80;1.00
3876;DHT22;1953;51.222;6.624;2023-07-02T04:57:26;17.80;1.00
3876;DHT22;1953;51.222;6.624;2023-07-02T05:02:09;17.80;1.00
3876;DHT22;1953;51.222;6.624;2023-07-02T05:06:53;17.80;1.00
3876;DHT22;1953;51.222;6.624;2023-07-02T05:11:36;17.80;1.00
3876;DHT22;1953;51.222;6.624;2023-07-02T05:16:18;17.90;1.00
3876;DHT22;1953;51.222;6.624;2023-07-02T05:21:01;17.90;1.00
3876;DHT22;1953;51.222;6.624;2023-07-02T05:25:45;18.00;1.00
3876;DHT22;1953;51.222;6.624;2023-07-02T05:30:27;18.10;1.00
3876;DHT22;1953;51.222;6.624;2023-07-02T05:35:10;18.20;1.00
3876;DHT22;1953;51.222;6.624;2023-07-02T05:39:53;18.20;1.00
3876;DHT22;1953;51.222;6.624;2023-07-02T05:44:37;18.20;1.00
3876;DHT22;1953;51.222;6.624;2023-07-02T05:49:19;18.20;1.00
3876;DHT22;1953;51.222;6.624;2023-07-02T05:54:02;18.40;1.00
3876;DHT22;1953;51.222;6.624;2023-07-02T05:58:45;18.50;1.00
3876;DHT22;1953;51.222;6.624;2023-07-02T06:03:29;18.50;1.00
3876;DHT22;1953;51.222;6.624;2023-07-02T06:08:11;18.60;1.00
3876;DHT22;1953;51.222;6.624;2023-07-02T06:12:54;18.60;1.00
3876;DHT22;1953;51.222;6.624;2023-07-02T06:17:36;18.70;1.00
3876;DHT22;1953;51.222;6.624;2023-07-02T06:22:20;18.70;1.00
3876;DHT22;1953;51.222;6.624;2023-07-02T06:27:03;18.70;1.00
3876;DHT22;1953;51.222;6.624;2023-07-02T06:31:46;18.90;1.00
3876;DHT22;1953;51.222;6.624;2023-07-02T06:36:28;19.10;1.00
3876;DHT22;1953;51.222;6.624;2023-07-02T06:41:12;19.10;1.00
3876;DHT22;1953;51.222;6.624;2023-07-02T06:45:55;19.10;1.00
3876;DHT22;1953;51.222;6.624;2023-07-02T06:50:37;19.10;1.00
3876;DHT22;1953;51.222;6.624;2023-07-02T06:55:20;19.30;1.00
3876;DHT22;1953;51.222;6.624;2023-07-02T07:00:05;19.40;1.00
3876;DHT22;1953;51.222;6.624;2023-07-02T07:04:49;19.50;1.00
3876;DHT22;1953;51.222;6.624;2023-07-02T07:09:31;19.40;1.00
3876;DHT22;1953;51.222;6.624;2023-07-02T07:14:14;19.40;1.00
3876;DHT22;1953;51.222;6.624;2023-07-02T07:18:58;19.40;1.00
3876;DHT22;1953;51.222;6.624;2023-07-02T07:23:41;19.40;1.00
3876;DHT22;1953;51.222;6.624;2023-07-02T07:28:23;19.40;1.00
3876;DHT22;1953;51.222;6.624;2023-07-02T07:33:06;19.50;1.00
3876;DHT22;1953;51.222;6.624;2023-07-02T07:37:50;19.60;1.00
3876;DHT22;1953;51.222;6.624;2023-07-02T07:42:32;19.90;1.00
3876;DHT22;1953;51.222;6.624;2023-07-02T07:47:15;20.00;1.00
3876;DHT22;1953;51.222;6.624;2023-07-02T07:51:57;20.20;1.00
3876;DHT22;1953;51.222;6.624;2023-07-02T07:56:41;20.10;1.00
3876;DHT22;1953;51.222;6.624;2023-07-02T08:01:26;19.90;1.00
3876;DHT22;1953;51.222;6.624;2023-07-02T08:06:08;19.80;1.00
3876;DHT22;1953;51.222;6.624;2023-07-02T08:10:51;19.90;1.00
3876;DHT22;1953;51.222;6.624;2023-07-02T08:15:35;20.10;1.00
3876;DHT22;1953;51.222;6.624;2023-07-02T08:20:17;20.40;1.00
3876;DHT22;1953;51.222;6.624;2023-07-02T08:25:00;20.40;1.00
3876;DHT22;1953;51.222;6.624;2023-07-02T08:29:43;20.40;1.00
3876;DHT22;1953;51.222;6.624;2023-07-02T08:34:26;20.40;1.00
3876;DHT22;1953;51.222;6.624;2023-07-02T08:39:09;20.30;1.00
3876;DHT22;1953;51.222;6.624;2023-07-02T08:43:55;20.30;1.00
3876;DHT22;1953;51.222;6.624;2023-07-02T08:48:38;20.20;1.00
3876;DHT22;1953;51.222;6.624;2023-07-02T08:53:22;20.40;1.00
3876;DHT22;1953;51.222;6.624;2023-07-02T08:58:10;20.50;1.00
3876;DHT22;1953;51.222;6.624;2023-07-02T09:02:53;20.50;1.00
3876;DHT22;1953;51.222;6.624;2023-07-02T09:07:44;20.30;1.00
3876;DHT22;1953;51.222;6.624;2023-07-02T09:12:29;20.30;1.00
3876;DHT22;1953;51.222;6.624;2023-07-02T09:17:13;20.30;1.00
3876;DHT22;1953;51.222;6.624;2023-07-02T09:21:57;20.40;1.00
3876;DHT22;1953;51.222;6.624;2023-07-02T09:26:45;20.70;1.00
3876;DHT22;1953;51.222;6.624;2023-07-02T09:31:31;20.90;1.00
3876;DHT22;1953;51.222;6.624;2023-07-02T09:36:14;20.80;1.00
3876;DHT22;1953;51.222;6.624;2023-07-02T09:40:56;20.60;1.00
3876;DHT22;1953;51.222;6.624;2023-07-02T09:45:43;20.70;1.00
3876;DHT22;1953;51.222;6.624;2023-07-02T09:50:27;20.80;1.00
3876;DHT22;1953;51.222;6.624;2023-07-02T09:55:12;20.60;1.00
3876;DHT22;1953;51.222;6.624;2023-07-02T09:59:54;20.40;1.00
3876;DHT22;1953;51.222;6.624;2023-07-02T10:04:40;20.40;1.00
3876;DHT22;1953;51.222;6.624;2023-07-02T10:09:37;20.50;1.00
3876;DHT22;1953;51.222;6.624;2023-07-02T10:14:20;20.60;1.00
3876;DHT22;1953;51.222;6.624;2023-07-02T10:19:09;20.50;1.00
3876;DHT22;1953;51.222;6.624;2023-07-02T10:23:52;20.40;1.00
3876;DHT22;1953;51.222;6.624;2023-07-02T10:28:36;20.40;1.00
3876;DHT22;1953;51.222;6.624;2023-07-02T10:33:18;20.30;1.00
3876;DHT22;1953;51.222;6.624;2023-07-02T10:38:01;20.20;1.00
3876;DHT22;1953;51.222;6.624;2023-07-02T10:42:47;20.30;1.00
3876;DHT22;1953;51.222;6.624;2023-07-02T10:47:31;20.70;1.00
3876;DHT22;1953;51.222;6.624;2023-07-02T10:52:14;21.10;1.00
3876;DHT22;1953;51.222;6.624;2023-07-02T10:56:57;21.30;1.00
3876;DHT22;1953;51.222;6.624;2023-07-02T11:01:39;21.60;1.00
3876;DHT22;1953;51.222;6.624;2023-07-02T11:06:24;21.80;1.00
3876;DHT22;1953;51.222;6.624;2023-07-02T11:11:07;21.90;1.00
3876;DHT22;1953;51.222;6.624;2023-07-02T11:15:50;21.90;1.00
3876;DHT22;1953;51.222;6.624;2023-07-02T11:20:34;21.80;1.00
3876;DHT22;1953;51.222;6.624;2023-07-02T11:25:19;21.80;1.00
3876;DHT22;1953;51.222;6.624;2023-07-02T11:30:02;22.10;1.00
3876;DHT22;1953;51.222;6.624;2023-07-02T11:34:53;22.20;1.00
3876;DHT22;1953;51.222;6.624;2023-07-02T11:39:36;22.30;1.00
3876;DHT22;1953;51.222;6.624;2023-07-02T11:44:20;22.30;1.00
3876;DHT22;1953;51.222;6.624;2023-07-02T11:49:03;22.30;1.00
3876;DHT22;1953;51.222;6.624;2023-07-02T11:53:46;22.30;1.00
3876;DHT22;1953;51.222;6.624;2023-07-02T11:58:29;22.40;1.00
3876;DHT22;1953;51.222;6.624;2023-07-02T12:03:12;22.60;1.00
3876;DHT22;1953;51.222;6.624;2023-07-02T12:07:55;22.60;1.00
3876;DHT22;1953;51.222;6.624;2023-07-02T12:15:19;22.90;1.00
3876;DHT22;1953;51.222;6.624;2023-07-02T12:20:01;23.00;1.00
3876;DHT22;1953;51.222;6.624;2023-07-02T12:24:44;23.50;1.00
3876;DHT22;1953;51.222;6.624;2023-07-02T12:29:27;24.10;1.00
3876;DHT22;1953;51.222;6.624;2023-07-02T12:34:11;24.50;1.00
3876;DHT22;1953;51.222;6.624;2023-07-02T12:38:53;24.90;1.00
3876;DHT22;1953;51.222;6.624;2023-07-02T12:43:36;24.70;1.00
3876;DHT22;1953;51.222;6.624;2023-07-02T12:48:18;24.40;1.00
3876;DHT22;1953;51.222;6.624;2023-07-02T12:53:02;24.60;1.00
3876;DHT22;1953;51.222;6.624;2023-07-02T12:57:45;25.40;1.00
3876;DHT22;1953;51.222;6.624;2023-07-02T13:02:27;25.90;1.00
3876;DHT22;1953;51.222;6.624;2023-07-02T13:07:10;26.60;1.00
3876;DHT22;1953;51.222;6.624;2023-07-02T13:11:53;27.10;1.00
3876;DHT22;1953;51.222;6.624;2023-07-02T13:16:36;26.50;1.00
3876;DHT22;1953;51.222;6.624;2023-07-02T13:21:19;26.50;1.00
3876;DHT22;1953;51.222;6.624;2023-07-02T13:26:01;26.70;1.00
3876;DHT22;1953;51.222;6.624;2023-07-02T13:30:45;27.10;1.00
3876;DHT22;1953;51.222;6.624;2023-07-02T13:35:27;27.40;1.00
3876;DHT22;1953;51.222;6.624;2023-07-02T13:40:11;26.70;1.00
3876;DHT22;1953;51.222;6.624;2023-07-02T13:44:56;27.70;1.00
3876;DHT22;1953;51.222;6.624;2023-07-02T13:49:40;27.80;1.00
3876;DHT22;1953;51.222;6.624;2023-07-02T13:54:22;27.60;1.00
3876;DHT22;1953;51.222;6.624;2023-07-02T13:59:06;26.20;1.00
3876;DHT22;1953;51.222;6.624;2023-07-02T14:03:49;25.70;1.00
3876;DHT22;1953;51.222;6.624;2023-07-02T14:08:32;26.30;1.00
3876;DHT22;1953;51.222;6.624;2023-07-02T14:13:14;27.30;1.00
3876;DHT22;1953;51.222;6.624;2023-07-02T14:17:58;25.90;1.00
3876;DHT22;1953;51.222;6.624;2023-07-02T14:22:41;26.10;1.00
3876;DHT22;1953;51.222;6.624;2023-07-02T14:27:23;27.20;1.00
3876;DHT22;1953;51.222;6.624;2023-07-02T14:32:07;27.80;1.00
3876;DHT22;1953;51.222;6.624;2023-07-02T14:36:51;27.80;1.00
3876;DHT22;1953;51.222;6.624;2023-07-02T14:41:33;28.40;1.00
3876;DHT22;1953;51.222;6.624;2023-07-02T14:46:17;29.00;1.00
3876;DHT22;1953;51.222;6.624;2023-07-02T14:51:00;28.70;1.00
3876;DHT22;1953;51.222;6.624;2023-07-02T14:55:45;28.00;1.00
3876;DHT22;1953;51.222;6.624;2023-07-02T15:00:28;28.60;1.00
3876;DHT22;1953;51.222;6.624;2023-07-02T15:05:10;27.90;1.00
3876;DHT22;1953;51.222;6.624;2023-07-02T15:09:53;26.60;1.00
3876;DHT22;1953;51.222;6.624;2023-07-02T15:14:37;26.50;1.00
3876;DHT22;1953;51.222;6.624;2023-07-02T15:19:19;27.40;1.00
3876;DHT22;1953;51.222;6.624;2023-07-02T15:24:02;26.80;1.00
3876;DHT22;1953;51.222;6.624;2023-07-02T15:28:45;26.60;1.00
3876;DHT22;1953;51.222;6.624;2023-07-02T15:33:29;27.20;1.00
3876;DHT22;1953;51.222;6.624;2023-07-02T15:38:11;28.20;1.00
3876;DHT22;1953;51.222;6.624;2023-07-02T15:42:54;27.30;1.00
3876;DHT22;1953;51.222;6.624;2023-07-02T15:47:36;27.40;1.00
3876;DHT22;1953;51.222;6.624;2023-07-02T15:52:20;28.30;1.00
3876;DHT22;1953;51.222;6.624;2023-07-02T15:57:03;28.60;1.00
3876;DHT22;1953;51.222;6.624;2023-07-02T16:01:49;28.20;1.00
3876;DHT22;1953;51.222;6.624;2023-07-02T16:06:31;28.00;1.00
3876;DHT22;1953;51.222;6.624;2023-07-02T16:11:16;27.20;1.00
3876;DHT22;1953;51.222;6.624;2023-07-02T16:16:00;27.60;1.00
3876;DHT22;1953;51.222;6.624;2023-07-02T16:20:43;28.30;1.00
3876;DHT22;1953;51.222;6.624;2023-07-02T16:25:26;27.80;1.00
3876;DHT22;1953;51.222;6.624;2023-07-02T16:30:10;26.90;1.00
3876;DHT22;1953;51.222;6.624;2023-07-02T16:34:53;26.20;1.00
3876;DHT22;1953;51.222;6.624;2023-07-02T16:39:35;26.40;1.00
3876;DHT22;1953;51.222;6.624;2023-07-02T16:44:20;26.80;1.00
3876;DHT22;1953;51.222;6.624;2023-07-02T16:49:04;26.20;1.00
3876;DHT22;1953;51.222;6.624;2023-07-02T16:53:46;26.70;1.00
3876;DHT22;1953;51.222;6.624;2023-07-02T16:58:30;26.70;1.00
3876;DHT22;1953;51.222;6.624;2023-07-02T17:03:13;27.00;1.00
3876;DHT22;1953;51.222;6.624;2023-07-02T17:07:57;26.90;1.00
3876;DHT22;1953;51.222;6.624;2023-07-02T17:12:40;27.30;1.00
3876;DHT22;1953;51.222;6.624;2023-07-02T17:17:25;27.30;1.00
3876;DHT22;1953;51.222;6.624;2023-07-02T17:22:11;27.10;1.00
3876;DHT22;1953;51.222;6.624;2023-07-02T17:26:56;26.70;1.00
3876;DHT22;1953;51.222;6.624;2023-07-02T17:31:39;25.90;1.00
3876;DHT22;1953;51.222;6.624;2023-07-02T17:36:21;25.40;1.00
3876;DHT22;1953;51.222;6.624;2023-07-02T17:41:06;25.10;1.00
3876;DHT22;1953;51.222;6.624;2023-07-02T17:45:54;25.00;1.00
3876;DHT22;1953;51.222;6.624;2023-07-02T17:50:37;24.90;1.00
3876;DHT22;1953;51.222;6.624;2023-07-02T17:55:20;25.60;1.00
3876;DHT22;1953;51.222;6.624;2023-07-02T18:00:03;24.80;1.00
3876;DHT22;1953;51.222;6.624;2023-07-02T18:04:47;24.60;1.00
3876;DHT22;1953;51.222;6.624;2023-07-02T18:09:30;24.60;1.00
3876;DHT22;1953;51.222;6.624;2023-07-02T18:14:12;24.40;1.00
3876;DHT22;1953;51.222;6.624;2023-07-02T18:18:57;24.40;1.00
3876;DHT22;1953;51.222;6.624;2023-07-02T18:23:41;24.20;1.00
3876;DHT22;1953;51.222;6.624;2023-07-02T18:28:24;24.20;1.00
3876;DHT22;1953;51.222;6.624;2023-07-02T18:33:06;24.00;1.00
3876;DHT22;1953;51.222;6.624;2023-07-02T18:37:49;23.90;1.00
3876;DHT22;1953;51.222;6.624;2023-07-02T18:42:33;25.10;1.00
3876;DHT22;1953;51.222;6.624;2023-07-02T18:47:15;23.70;1.00
3876;DHT22;1953;51.222;6.624;2023-07-02T18:51:58;23.60;1.00
3876;DHT22;1953;51.222;6.624;2023-07-02T18:56:40;23.50;1.00
3876;DHT22;1953;51.222;6.624;2023-07-02T19:01:24;23.50;1.00
3876;DHT22;1953;51.222;6.624;2023-07-02T19:06:08;23.50;1.00
3876;DHT22;1953;51.222;6.624;2023-07-02T19:10:58;23.50;1.00
3876;DHT22;1953;51.222;6.624;2023-07-02T19:15:41;23.50;1.00
3876;DHT22;1953;51.222;6.624;2023-07-02T19:20:26;23.40;1.00
3876;DHT22;1953;51.222;6.624;2023-07-02T19:25:08;23.30;1.00
3876;DHT22;1953;51.222;6.624;2023-07-02T19:29:51;23.20;1.00
3876;DHT22;1953;51.222;6.624;2023-07-02T19:34:37;23.10;1.00
3876;DHT22;1953;51.222;6.624;2023-07-02T19:39:24;23.00;1.00
3876;DHT22;1953;51.222;6.624;2023-07-02T19:44:07;21.10;1.00
3876;DHT22;1953;51.222;6.624;2023-07-02T19:48:49;22.60;1.00
3876;DHT22;1953;51.222;6.624;2023-07-02T19:53:32;22.40;1.00
3876;DHT22;1953;51.222;6.624;2023-07-02T19:58:16;22.40;1.00
3876;DHT22;1953;51.222;6.624;2023-07-02T20:02:59;22.30;1.00
3876;DHT22;1953;51.222;6.624;2023-07-02T20:07:41;22.10;1.00
3876;DHT22;1953;51.222;6.624;2023-07-02T20:12:24;22.00;1.00
3876;DHT22;1953;51.222;6.624;2023-07-02T20:17:10;20.50;1.00
3876;DHT22;1953;51.222;6.624;2023-07-02T20:21:53;21.80;1.00
3876;DHT22;1953;51.222;6.624;2023-07-02T20:26:36;21.80;1.00
3876;DHT22;1953;51.222;6.624;2023-07-02T20:31:18;21.80;1.00
3876;DHT22;1953;51.222;6.624;2023-07-02T20:36:03;21.60;1.00
3876;DHT22;1953;51.222;6.624;2023-07-02T20:40:55;21.50;1.00
3876;DHT22;1953;51.222;6.624;2023-07-02T20:45:42;21.50;1.00
3876;DHT22;1953;51.222;6.624;2023-07-02T20:50:25;21.40;1.00
3876;DHT22;1953;51.222;6.624;2023-07-02T20:55:10;21.30;1.00
3876;DHT22;1953;51.222;6.624;2023-07-02T20:59:53;21.20;1.00
3876;DHT22;1953;51.222;6.624;2023-07-02T21:04:35;21.10;1.00
3876;DHT22;1953;51.222;6.624;2023-07-02T21:09:18;21.00;1.00
3876;DHT22;1953;51.222;6.624;2023-07-02T21:14:04;21.00;1.00
3876;DHT22;1953;51.222;6.624;2023-07-02T21:18:48;21.00;1.00
3876;DHT22;1953;51.222;6.624;2023-07-02T21:23:30;20.90;1.00
3876;DHT22;1953;51.222;6.624;2023-07-02T21:28:13;20.90;1.00
3876;DHT22;1953;51.222;6.624;2023-07-02T21:33:02;20.80;1.00
3876;DHT22;1953;51.222;6.624;2023-07-02T21:37:45;20.50;1.00
3876;DHT22;1953;51.222;6.624;2023-07-02T21:42:27;20.50;1.00
3876;DHT22;1953;51.222;6.624;2023-07-02T21:47:10;20.50;1.00
3876;DHT22;1953;51.222;6.624;2023-07-02T21:51:54;20.40;1.00
3876;DHT22;1953;51.222;6.624;2023-07-02T21:56:36;20.20;1.00
3876;DHT22;1953;51.222;6.624;2023-07-02T22:01:19;20.00;1.00
3876;DHT22;1953;51.222;6.624;2023-07-02T22:06:01;19.70;1.00
3876;DHT22;1953;51.222;6.624;2023-07-02T22:10:46;19.50;1.00
3876;DHT22;1953;51.222;6.624;2023-07-02T22:15:29;19.30;1.00
3876;DHT22;1953;51.222;6.624;2023-07-02T22:20:11;19.30;1.00
3876;DHT22;1953;51.222;6.624;2023-07-02T22:24:54;19.00;1.00
3876;DHT22;1953;51.222;6.624;2023-07-02T22:29:38;19.10;1.00
3876;DHT22;1953;51.222;6.624;2023-07-02T22:34:20;19.00;1.00
3876;DHT22;1953;51.222;6.624;2023-07-02T22:39:03;18.80;1.00
3876;DHT22;1953;51.222;6.624;2023-07-02T22:43:46;18.80;1.00
3876;DHT22;1953;51.222;6.624;2023-07-02T22:48:29;18.70;1.00
3876;DHT22;1953;51.222;6.624;2023-07-02T22:53:12;18.50;1.00
3876;DHT22;1953;51.222;6.624;2023-07-02T22:57:57;18.40;1.00
3876;DHT22;1953;51.222;6.624;2023-07-02T23:02:43;18.40;1.00
3876;DHT22;1953;51.222;6.624;2023-07-02T23:07:27;18.20;1.00
3876;DHT22;1953;51.222;6.624;2023-07-02T23:12:10;18.00;1.00
3876;DHT22;1953;51.222;6.624;2023-07-02T23:16:53;17.90;1.00
3876;DHT22;1953;51.222;6.624;2023-07-02T23:21:35;17.80;1.00
3876;DHT22;1953;51.222;6.624;2023-07-02T23:26:19;17.70;1.00
3876;DHT22;1953;51.222;6.624;2023-07-02T23:31:01;17.80;1.00
3876;DHT22;1953;51.222;6.624;2023-07-02T23:35:45;17.70;1.00
3876;DHT22;1953;51.222;6.624;2023-07-02T23:40:28;17.70;1.00
3876;DHT22;1953;51.222;6.624;2023-07-02T23:45:13;17.60;1.00
3876;DHT22;1953;51.222;6.624;2023-07-02T23:49:55;17.50;1.00
3876;DHT22;1953;51.222;6.624;2023-07-02T23:54:38;17.50;1.00
3876;DHT22;1953;51.222;6.624;2023-07-02T23:59:21;17.50;1.00
